sensor_id;sensor_type;location;lat;lon;timestamp;pressure;altitude;pressure_sealevel;temperature;humidity
70256;BME280;57669;52.624;-1.688;2023-01-19T00:00:10;99996.01;;;0.58;53.76
70256;BME280;57669;52.624;-1.688;2023-01-19T00:02:32;99994.53;;;1.23;52.35
70256;BME280;57669;52.624;-1.688;2023-01-19T00:04:58;99994.47;;;1.13;52.42
70256;BME280;57669;52.624;-1.688;2023-01-19T00:07:23;99995.97;;;0.80;52.63
70256;BME280;57669;52.624;-1.688;2023-01-19T00:09:48;99998.56;;;1.30;51.88
70256;BME280;57669;52.624;-1.688;2023-01-19T00:12:13;99999.08;;;1.08;52.04
70256;BME280;57669;52.624;-1.688;2023-01-19T00:14:38;99998.42;;;0.54;52.89
70256;BME280;57669;52.624;-1.688;2023-01-19T00:17:08;99997.89;;;0.72;52.22
70256;BME280;57669;52.624;-1.688;2023-01-19T00:19:29;99997.56;;;1.09;51.64
70256;BME280;57669;52.624;-1.688;2023-01-19T00:21:54;100000.52;;;1.42;51.59
70256;BME280;57669;52.624;-1.688;2023-01-19T00:24:19;100000.49;;;1.17;51.87
70256;BME280;57669;52.624;-1.688;2023-01-19T00:26:44;100000.23;;;1.02;53.34
70256;BME280;57669;52.624;-1.688;2023-01-19T00:29:11;100002.31;;;0.25;54.81
70256;BME280;57669;52.624;-1.688;2023-01-19T00:31:35;99997.79;;;0.04;55.37
70256;BME280;57669;52.624;-1.688;2023-01-19T00:34:00;99996.55;;;0.42;54.32
70256;BME280;57669;52.624;-1.688;2023-01-19T00:36:25;99999.91;;;0.18;54.38
70256;BME280;57669;52.624;-1.688;2023-01-19T00:38:50;100000.05;;;0.13;54.46
70256;BME280;57669;52.624;-1.688;2023-01-19T00:41:16;100003.40;;;0.31;53.67
70256;BME280;57669;52.624;-1.688;2023-01-19T00:43:42;100004.42;;;0.32;54.03
70256;BME280;57669;52.624;-1.688;2023-01-19T00:46:08;100012.29;;;-0.81;58.35
70256;BME280;57669;52.624;-1.688;2023-01-19T00:48:33;100010.92;;;-0.06;56.82
70256;BME280;57669;52.624;-1.688;2023-01-19T00:50:58;100009.54;;;-0.19;56.82
70256;BME280;57669;52.624;-1.688;2023-01-19T00:53:24;100009.23;;;-0.52;58.22
70256;BME280;57669;52.624;-1.688;2023-01-19T00:55:49;100009.80;;;-0.76;58.61
70256;BME280;57669;52.624;-1.688;2023-01-19T00:58:14;100005.24;;;-0.21;57.08
70256;BME280;57669;52.624;-1.688;2023-01-19T01:00:40;100009.62;;;-0.05;56.70
70256;BME280;57669;52.624;-1.688;2023-01-19T01:03:05;100012.29;;;-0.13;57.15
70256;BME280;57669;52.624;-1.688;2023-01-19T01:05:30;100010.48;;;-0.21;57.06
70256;BME280;57669;52.624;-1.688;2023-01-19T01:07:55;100009.98;;;-0.59;58.10
70256;BME280;57669;52.624;-1.688;2023-01-19T01:10:23;100014.70;;;0.08;55.93
70256;BME280;57669;52.624;-1.688;2023-01-19T01:12:46;100017.03;;;-0.73;58.83
70256;BME280;57669;52.624;-1.688;2023-01-19T01:15:12;100018.95;;;-1.10;59.09
70256;BME280;57669;52.624;-1.688;2023-01-19T01:17:36;100019.74;;;-0.53;58.57
70256;BME280;57669;52.624;-1.688;2023-01-19T01:20:01;100016.63;;;-0.48;57.59
70256;BME280;57669;52.624;-1.688;2023-01-19T01:22:26;100017.97;;;0.07;56.40
70256;BME280;57669;52.624;-1.688;2023-01-19T01:24:52;100018.04;;;-0.68;57.33
70256;BME280;57669;52.624;-1.688;2023-01-19T01:27:17;100019.54;;;0.10;56.34
70256;BME280;57669;52.624;-1.688;2023-01-19T01:29:43;100022.31;;;0.25;55.80
70256;BME280;57669;52.624;-1.688;2023-01-19T01:32:08;100023.57;;;0.10;56.44
70256;BME280;57669;52.624;-1.688;2023-01-19T01:34:33;100017.67;;;0.01;55.90
70256;BME280;57669;52.624;-1.688;2023-01-19T01:36:58;100027.02;;;-0.41;57.10
70256;BME280;57669;52.624;-1.688;2023-01-19T01:39:23;100023.53;;;-0.20;56.06
70256;BME280;57669;52.624;-1.688;2023-01-19T01:41:48;100023.27;;;-0.08;56.86
70256;BME280;57669;52.624;-1.688;2023-01-19T01:46:38;100015.90;;;-0.27;56.60
70256;BME280;57669;52.624;-1.688;2023-01-19T01:49:11;100014.35;;;-0.51;56.66
70256;BME280;57669;52.624;-1.688;2023-01-19T01:51:32;100015.55;;;-0.10;55.68
70256;BME280;57669;52.624;-1.688;2023-01-19T01:54:02;100017.25;;;0.45;55.33
70256;BME280;57669;52.624;-1.688;2023-01-19T01:56:23;100015.66;;;0.01;56.04
70256;BME280;57669;52.624;-1.688;2023-01-19T01:58:45;100012.96;;;-0.47;56.99
70256;BME280;57669;52.624;-1.688;2023-01-19T02:01:10;100011.12;;;-0.42;57.18
70256;BME280;57669;52.624;-1.688;2023-01-19T02:03:35;100019.64;;;-0.32;56.75
70256;BME280;57669;52.624;-1.688;2023-01-19T02:06:02;100019.80;;;-0.71;57.52
70256;BME280;57669;52.624;-1.688;2023-01-19T02:08:31;100028.76;;;-0.85;58.18
70256;BME280;57669;52.624;-1.688;2023-01-19T02:10:52;100029.63;;;-0.67;57.91
70256;BME280;57669;52.624;-1.688;2023-01-19T02:13:17;100029.90;;;-0.52;58.45
70256;BME280;57669;52.624;-1.688;2023-01-19T02:15:42;100034.15;;;-1.12;59.20
70256;BME280;57669;52.624;-1.688;2023-01-19T02:18:07;100030.41;;;-0.84;59.24
70256;BME280;57669;52.624;-1.688;2023-01-19T02:20:34;100028.73;;;-0.65;58.10
70256;BME280;57669;52.624;-1.688;2023-01-19T02:23:01;100025.80;;;-0.37;56.79
70256;BME280;57669;52.624;-1.688;2023-01-19T02:25:24;100021.40;;;-0.12;55.73
70256;BME280;57669;52.624;-1.688;2023-01-19T02:27:50;100018.81;;;-0.29;55.74
70256;BME280;57669;52.624;-1.688;2023-01-19T02:30:15;100016.70;;;-0.05;55.38
70256;BME280;57669;52.624;-1.688;2023-01-19T02:32:40;100016.95;;;0.26;54.06
70256;BME280;57669;52.624;-1.688;2023-01-19T02:35:06;100024.20;;;-0.16;54.51
70256;BME280;57669;52.624;-1.688;2023-01-19T02:37:33;100028.77;;;-0.39;55.22
70256;BME280;57669;52.624;-1.688;2023-01-19T02:39:58;100023.94;;;0.07;54.34
70256;BME280;57669;52.624;-1.688;2023-01-19T02:42:25;100023.60;;;0.14;54.59
70256;BME280;57669;52.624;-1.688;2023-01-19T02:44:48;100025.40;;;-0.11;55.09
70256;BME280;57669;52.624;-1.688;2023-01-19T02:47:12;100026.66;;;-0.34;55.56
70256;BME280;57669;52.624;-1.688;2023-01-19T02:49:37;100031.04;;;-0.15;55.37
70256;BME280;57669;52.624;-1.688;2023-01-19T02:52:03;100028.24;;;0.39;53.75
70256;BME280;57669;52.624;-1.688;2023-01-19T02:54:35;100035.05;;;-0.44;55.07
70256;BME280;57669;52.624;-1.688;2023-01-19T02:57:10;100032.26;;;0.29;53.17
70256;BME280;57669;52.624;-1.688;2023-01-19T02:59:27;100028.75;;;-0.26;53.82
70256;BME280;57669;52.624;-1.688;2023-01-19T03:01:55;100027.24;;;0.32;53.13
70256;BME280;57669;52.624;-1.688;2023-01-19T03:04:13;100028.11;;;-0.20;54.63
70256;BME280;57669;52.624;-1.688;2023-01-19T03:06:41;100035.00;;;-1.10;57.40
70256;BME280;57669;52.624;-1.688;2023-01-19T03:09:03;100036.76;;;-0.85;57.23
70256;BME280;57669;52.624;-1.688;2023-01-19T03:11:30;100033.60;;;-0.75;57.16
70256;BME280;57669;52.624;-1.688;2023-01-19T03:13:52;100026.27;;;-0.29;55.94
70256;BME280;57669;52.624;-1.688;2023-01-19T03:16:20;100027.84;;;-0.71;57.22
70256;BME280;57669;52.624;-1.688;2023-01-19T03:18:44;100012.06;;;-0.21;55.53
70256;BME280;57669;52.624;-1.688;2023-01-19T03:21:07;100010.75;;;-0.03;54.48
70256;BME280;57669;52.624;-1.688;2023-01-19T03:23:33;100014.18;;;0.16;54.54
70256;BME280;57669;52.624;-1.688;2023-01-19T03:25:58;100011.29;;;-0.22;55.18
70256;BME280;57669;52.624;-1.688;2023-01-19T03:28:23;100014.52;;;0.20;54.69
70256;BME280;57669;52.624;-1.688;2023-01-19T03:30:54;100017.09;;;-0.19;55.17
70256;BME280;57669;52.624;-1.688;2023-01-19T03:33:15;100012.07;;;-0.14;55.05
70256;BME280;57669;52.624;-1.688;2023-01-19T03:35:42;100012.52;;;-0.02;53.76
70256;BME280;57669;52.624;-1.688;2023-01-19T03:38:08;100011.41;;;0.18;53.17
70256;BME280;57669;52.624;-1.688;2023-01-19T03:40:30;100004.73;;;0.64;52.10
70256;BME280;57669;52.624;-1.688;2023-01-19T03:42:54;99999.01;;;0.24;53.06
70256;BME280;57669;52.624;-1.688;2023-01-19T03:45:19;99997.76;;;0.25;53.31
70256;BME280;57669;52.624;-1.688;2023-01-19T03:47:44;99993.64;;;0.12;53.28
70256;BME280;57669;52.624;-1.688;2023-01-19T03:50:19;99997.33;;;0.11;53.38
70256;BME280;57669;52.624;-1.688;2023-01-19T03:52:34;99997.73;;;0.48;52.12
70256;BME280;57669;52.624;-1.688;2023-01-19T03:55:00;99996.07;;;0.14;52.80
70256;BME280;57669;52.624;-1.688;2023-01-19T03:57:25;99995.31;;;0.22;52.19
70256;BME280;57669;52.624;-1.688;2023-01-19T03:59:50;100000.26;;;0.49;51.57
70256;BME280;57669;52.624;-1.688;2023-01-19T04:02:15;100003.24;;;-0.20;52.85
70256;BME280;57669;52.624;-1.688;2023-01-19T04:04:40;100004.58;;;0.35;52.50
70256;BME280;57669;52.624;-1.688;2023-01-19T04:07:05;100000.54;;;0.38;51.50
70256;BME280;57669;52.624;-1.688;2023-01-19T04:09:31;99996.53;;;0.45;51.57
70256;BME280;57669;52.624;-1.688;2023-01-19T04:11:56;99994.76;;;0.36;51.84
70256;BME280;57669;52.624;-1.688;2023-01-19T04:14:21;99988.23;;;0.30;52.60
70256;BME280;57669;52.624;-1.688;2023-01-19T04:16:46;99988.81;;;-0.23;53.16
70256;BME280;57669;52.624;-1.688;2023-01-19T04:19:11;99987.61;;;-0.27;53.65
70256;BME280;57669;52.624;-1.688;2023-01-19T04:24:02;99989.33;;;-0.35;54.31
70256;BME280;57669;52.624;-1.688;2023-01-19T04:26:27;99992.30;;;-0.58;54.30
70256;BME280;57669;52.624;-1.688;2023-01-19T04:28:52;99992.31;;;-0.39;54.99
70256;BME280;57669;52.624;-1.688;2023-01-19T04:31:17;99987.62;;;-0.61;54.66
70256;BME280;57669;52.624;-1.688;2023-01-19T04:33:43;99985.76;;;-0.13;54.29
70256;BME280;57669;52.624;-1.688;2023-01-19T04:36:08;99987.16;;;0.23;53.32
70256;BME280;57669;52.624;-1.688;2023-01-19T04:38:34;99986.71;;;-0.12;55.09
70256;BME280;57669;52.624;-1.688;2023-01-19T04:40:58;99990.04;;;0.24;55.85
70256;BME280;57669;52.624;-1.688;2023-01-19T04:43:24;99987.48;;;-0.42;56.06
70256;BME280;57669;52.624;-1.688;2023-01-19T04:45:49;99988.72;;;-0.36;54.98
70256;BME280;57669;52.624;-1.688;2023-01-19T04:48:15;99987.76;;;-0.22;54.88
70256;BME280;57669;52.624;-1.688;2023-01-19T04:53:04;99990.46;;;0.00;54.16
70256;BME280;57669;52.624;-1.688;2023-01-19T04:55:30;99993.34;;;0.45;53.31
70256;BME280;57669;52.624;-1.688;2023-01-19T04:57:55;99990.72;;;-0.01;53.61
70256;BME280;57669;52.624;-1.688;2023-01-19T05:00:21;99988.25;;;0.56;53.26
70256;BME280;57669;52.624;-1.688;2023-01-19T05:02:45;99984.13;;;-0.59;56.39
70256;BME280;57669;52.624;-1.688;2023-01-19T05:05:10;99983.85;;;-0.93;56.82
70256;BME280;57669;52.624;-1.688;2023-01-19T05:07:35;99992.46;;;-1.22;56.76
70256;BME280;57669;52.624;-1.688;2023-01-19T05:10:00;99987.78;;;-0.36;56.04
70256;BME280;57669;52.624;-1.688;2023-01-19T05:12:26;99990.44;;;-0.16;55.96
70256;BME280;57669;52.624;-1.688;2023-01-19T05:14:51;100000.24;;;-0.93;57.76
70256;BME280;57669;52.624;-1.688;2023-01-19T05:17:16;99991.93;;;-0.14;56.22
70256;BME280;57669;52.624;-1.688;2023-01-19T05:19:41;99990.00;;;-0.13;55.64
70256;BME280;57669;52.624;-1.688;2023-01-19T05:22:06;99988.64;;;-0.63;56.15
70256;BME280;57669;52.624;-1.688;2023-01-19T05:24:32;99990.80;;;-0.64;55.96
70256;BME280;57669;52.624;-1.688;2023-01-19T05:26:57;99995.06;;;-0.24;55.90
70256;BME280;57669;52.624;-1.688;2023-01-19T05:29:22;99995.89;;;-0.13;54.69
70256;BME280;57669;52.624;-1.688;2023-01-19T05:31:47;99996.10;;;0.20;54.13
70256;BME280;57669;52.624;-1.688;2023-01-19T05:34:13;99993.51;;;-0.00;53.37
70256;BME280;57669;52.624;-1.688;2023-01-19T05:36:37;99989.90;;;-0.27;53.70
70256;BME280;57669;52.624;-1.688;2023-01-19T05:39:03;99990.65;;;-0.13;53.23
70256;BME280;57669;52.624;-1.688;2023-01-19T05:41:28;99995.55;;;0.50;52.31
70256;BME280;57669;52.624;-1.688;2023-01-19T05:43:53;100005.08;;;-0.28;54.25
70256;BME280;57669;52.624;-1.688;2023-01-19T05:46:18;100009.25;;;0.08;52.94
70256;BME280;57669;52.624;-1.688;2023-01-19T05:48:43;100012.76;;;-0.74;53.89
70256;BME280;57669;52.624;-1.688;2023-01-19T05:51:08;100010.77;;;-0.85;54.97
70256;BME280;57669;52.624;-1.688;2023-01-19T05:53:33;100006.60;;;-0.77;55.18
70256;BME280;57669;52.624;-1.688;2023-01-19T05:55:59;99997.83;;;-0.32;53.96
70256;BME280;57669;52.624;-1.688;2023-01-19T05:58:24;99998.78;;;-0.33;54.76
70256;BME280;57669;52.624;-1.688;2023-01-19T06:00:49;99992.74;;;-0.39;54.05
70256;BME280;57669;52.624;-1.688;2023-01-19T06:03:14;99991.70;;;-0.16;54.13
70256;BME280;57669;52.624;-1.688;2023-01-19T06:05:39;100001.69;;;-0.80;55.72
70256;BME280;57669;52.624;-1.688;2023-01-19T06:08:05;99998.44;;;-0.75;56.10
70256;BME280;57669;52.624;-1.688;2023-01-19T06:10:30;99996.42;;;-1.00;58.62
70256;BME280;57669;52.624;-1.688;2023-01-19T06:12:55;99998.74;;;-1.11;57.63
70256;BME280;57669;52.624;-1.688;2023-01-19T06:15:20;99998.48;;;-1.25;58.27
70256;BME280;57669;52.624;-1.688;2023-01-19T06:17:46;99996.37;;;-1.09;58.67
70256;BME280;57669;52.624;-1.688;2023-01-19T06:20:11;99995.21;;;-1.57;59.92
70256;BME280;57669;52.624;-1.688;2023-01-19T06:22:36;99998.03;;;-1.17;58.73
70256;BME280;57669;52.624;-1.688;2023-01-19T06:25:01;100000.11;;;-0.81;57.93
70256;BME280;57669;52.624;-1.688;2023-01-19T06:27:27;99999.88;;;-0.87;58.35
70256;BME280;57669;52.624;-1.688;2023-01-19T06:29:52;99998.75;;;-0.95;57.72
70256;BME280;57669;52.624;-1.688;2023-01-19T06:32:17;99996.36;;;-1.62;60.44
70256;BME280;57669;52.624;-1.688;2023-01-19T06:34:43;100001.16;;;-0.46;57.37
70256;BME280;57669;52.624;-1.688;2023-01-19T06:37:09;100004.25;;;-0.98;57.99
70256;BME280;57669;52.624;-1.688;2023-01-19T06:39:34;100004.19;;;-1.36;58.72
70256;BME280;57669;52.624;-1.688;2023-01-19T06:41:59;100003.83;;;-0.95;58.57
70256;BME280;57669;52.624;-1.688;2023-01-19T06:44:25;100006.67;;;-0.85;58.56
70256;BME280;57669;52.624;-1.688;2023-01-19T06:46:50;100008.10;;;-0.88;58.57
70256;BME280;57669;52.624;-1.688;2023-01-19T06:49:15;100009.15;;;-0.75;58.47
70256;BME280;57669;52.624;-1.688;2023-01-19T06:51:41;100006.51;;;-0.68;57.26
70256;BME280;57669;52.624;-1.688;2023-01-19T06:54:06;100005.02;;;-0.99;57.32
70256;BME280;57669;52.624;-1.688;2023-01-19T06:56:31;100003.05;;;-0.77;57.83
70256;BME280;57669;52.624;-1.688;2023-01-19T06:58:57;100001.80;;;-0.94;58.24
70256;BME280;57669;52.624;-1.688;2023-01-19T07:01:22;100003.90;;;-0.59;57.60
70256;BME280;57669;52.624;-1.688;2023-01-19T07:03:47;100005.64;;;-0.80;57.97
70256;BME280;57669;52.624;-1.688;2023-01-19T07:06:12;100004.50;;;-1.50;59.84
70256;BME280;57669;52.624;-1.688;2023-01-19T07:08:38;100003.40;;;-1.36;60.52
70256;BME280;57669;52.624;-1.688;2023-01-19T07:11:05;99997.33;;;-2.11;61.63
70256;BME280;57669;52.624;-1.688;2023-01-19T07:13:29;99995.92;;;-1.40;60.63
70256;BME280;57669;52.624;-1.688;2023-01-19T07:15:54;99995.76;;;-1.87;60.33
70256;BME280;57669;52.624;-1.688;2023-01-19T07:18:20;99992.36;;;-1.39;59.60
70256;BME280;57669;52.624;-1.688;2023-01-19T07:20:45;99994.96;;;-1.46;59.49
70256;BME280;57669;52.624;-1.688;2023-01-19T07:23:10;99999.52;;;-1.61;59.60
70256;BME280;57669;52.624;-1.688;2023-01-19T07:25:35;100006.64;;;-1.46;59.30
70256;BME280;57669;52.624;-1.688;2023-01-19T07:28:01;100009.87;;;-0.86;57.54
70256;BME280;57669;52.624;-1.688;2023-01-19T07:30:26;100011.53;;;-1.08;57.71
70256;BME280;57669;52.624;-1.688;2023-01-19T07:32:54;100010.90;;;-0.99;57.25
70256;BME280;57669;52.624;-1.688;2023-01-19T07:35:17;100013.09;;;-0.83;57.07
70256;BME280;57669;52.624;-1.688;2023-01-19T07:37:43;100017.19;;;-1.14;57.38
70256;BME280;57669;52.624;-1.688;2023-01-19T07:40:10;100017.19;;;-0.62;57.14
70256;BME280;57669;52.624;-1.688;2023-01-19T07:42:33;100019.07;;;-0.54;56.23
70256;BME280;57669;52.624;-1.688;2023-01-19T07:44:58;100026.45;;;-0.77;56.51
70256;BME280;57669;52.624;-1.688;2023-01-19T07:47:24;100028.98;;;-0.40;55.85
70256;BME280;57669;52.624;-1.688;2023-01-19T07:49:50;100026.96;;;-0.60;54.98
70256;BME280;57669;52.624;-1.688;2023-01-19T07:52:15;100025.94;;;-0.90;56.02
70256;BME280;57669;52.624;-1.688;2023-01-19T07:54:41;100024.21;;;-0.49;55.71
70256;BME280;57669;52.624;-1.688;2023-01-19T07:57:07;100027.26;;;-1.05;55.81
70256;BME280;57669;52.624;-1.688;2023-01-19T07:59:32;100026.34;;;-1.13;56.14
70256;BME280;57669;52.624;-1.688;2023-01-19T08:01:58;100032.81;;;-0.67;55.20
70256;BME280;57669;52.624;-1.688;2023-01-19T08:04:23;100035.24;;;-1.18;56.14
70256;BME280;57669;52.624;-1.688;2023-01-19T08:06:48;100033.86;;;-0.64;54.51
70256;BME280;57669;52.624;-1.688;2023-01-19T08:09:14;100037.52;;;-0.43;54.13
70256;BME280;57669;52.624;-1.688;2023-01-19T08:11:39;100037.46;;;-0.63;55.27
70256;BME280;57669;52.624;-1.688;2023-01-19T08:14:04;100042.39;;;-0.59;56.20
70256;BME280;57669;52.624;-1.688;2023-01-19T08:16:30;100043.60;;;-0.75;55.98
70256;BME280;57669;52.624;-1.688;2023-01-19T08:18:55;100045.55;;;-0.65;55.71
70256;BME280;57669;52.624;-1.688;2023-01-19T08:21:20;100049.88;;;-0.96;55.94
70256;BME280;57669;52.624;-1.688;2023-01-19T08:23:51;100054.70;;;-0.87;56.11
70256;BME280;57669;52.624;-1.688;2023-01-19T08:26:17;100056.87;;;-0.59;55.69
70256;BME280;57669;52.624;-1.688;2023-01-19T08:28:36;100058.34;;;-0.71;55.39
70256;BME280;57669;52.624;-1.688;2023-01-19T08:31:01;100062.31;;;-0.98;55.83
70256;BME280;57669;52.624;-1.688;2023-01-19T08:33:26;100063.10;;;-0.19;54.28
70256;BME280;57669;52.624;-1.688;2023-01-19T08:35:52;100065.62;;;-0.12;53.66
70256;BME280;57669;52.624;-1.688;2023-01-19T08:38:17;100073.26;;;-0.07;53.93
70256;BME280;57669;52.624;-1.688;2023-01-19T08:40:42;100079.11;;;-0.86;55.20
70256;BME280;57669;52.624;-1.688;2023-01-19T08:43:09;100076.01;;;-0.20;53.47
70256;BME280;57669;52.624;-1.688;2023-01-19T08:45:33;100075.04;;;0.54;52.41
70256;BME280;57669;52.624;-1.688;2023-01-19T08:47:59;100080.25;;;-0.03;52.70
70256;BME280;57669;52.624;-1.688;2023-01-19T08:50:24;100088.89;;;-0.24;52.96
70256;BME280;57669;52.624;-1.688;2023-01-19T08:52:50;100101.87;;;0.06;52.74
70256;BME280;57669;52.624;-1.688;2023-01-19T08:55:15;100099.73;;;-0.23;53.02
70256;BME280;57669;52.624;-1.688;2023-01-19T08:57:41;100098.41;;;-0.05;52.35
70256;BME280;57669;52.624;-1.688;2023-01-19T09:00:07;100100.30;;;0.10;52.11
70256;BME280;57669;52.624;-1.688;2023-01-19T09:02:31;100106.22;;;0.47;51.70
70256;BME280;57669;52.624;-1.688;2023-01-19T09:04:56;100106.11;;;0.07;52.19
70256;BME280;57669;52.624;-1.688;2023-01-19T09:07:21;100102.19;;;0.11;52.04
70256;BME280;57669;52.624;-1.688;2023-01-19T09:09:47;100105.22;;;0.15;52.05
70256;BME280;57669;52.624;-1.688;2023-01-19T09:12:12;100108.68;;;-0.45;54.11
70256;BME280;57669;52.624;-1.688;2023-01-19T09:14:38;100100.55;;;0.42;52.49
70256;BME280;57669;52.624;-1.688;2023-01-19T09:17:03;100104.44;;;0.32;54.59
70256;BME280;57669;52.624;-1.688;2023-01-19T09:19:29;100107.53;;;0.04;54.64
70256;BME280;57669;52.624;-1.688;2023-01-19T09:21:54;100108.49;;;0.46;53.44
70256;BME280;57669;52.624;-1.688;2023-01-19T09:24:19;100117.83;;;0.63;53.04
70256;BME280;57669;52.624;-1.688;2023-01-19T09:26:45;100115.56;;;0.77;52.11
70256;BME280;57669;52.624;-1.688;2023-01-19T09:29:10;100110.57;;;0.56;52.58
70256;BME280;57669;52.624;-1.688;2023-01-19T09:31:36;100107.96;;;0.56;52.69
70256;BME280;57669;52.624;-1.688;2023-01-19T09:34:01;100117.58;;;1.25;52.12
70256;BME280;57669;52.624;-1.688;2023-01-19T09:36:26;100119.75;;;1.13;51.78
70256;BME280;57669;52.624;-1.688;2023-01-19T09:38:52;100121.88;;;1.91;50.61
70256;BME280;57669;52.624;-1.688;2023-01-19T09:41:19;100120.42;;;1.31;51.79
70256;BME280;57669;52.624;-1.688;2023-01-19T09:43:46;100111.23;;;0.68;52.79
70256;BME280;57669;52.624;-1.688;2023-01-19T09:46:11;100118.64;;;0.35;54.39
70256;BME280;57669;52.624;-1.688;2023-01-19T09:48:42;100120.96;;;1.05;52.76
70256;BME280;57669;52.624;-1.688;2023-01-19T09:51:03;100126.54;;;0.06;55.23
70256;BME280;57669;52.624;-1.688;2023-01-19T09:53:32;100132.30;;;-0.73;58.48
70256;BME280;57669;52.624;-1.688;2023-01-19T09:55:50;100126.96;;;-1.25;60.07
70256;BME280;57669;52.624;-1.688;2023-01-19T09:58:22;100128.35;;;-0.71;59.10
70256;BME280;57669;52.624;-1.688;2023-01-19T10:00:43;100122.39;;;-0.98;60.19
70256;BME280;57669;52.624;-1.688;2023-01-19T10:03:20;100123.74;;;-0.65;59.21
70256;BME280;57669;52.624;-1.688;2023-01-19T10:05:36;100121.22;;;-0.99;59.64
70256;BME280;57669;52.624;-1.688;2023-01-19T10:08:05;100123.47;;;-0.84;59.24
70256;BME280;57669;52.624;-1.688;2023-01-19T10:10:25;100120.30;;;-0.27;58.02
70256;BME280;57669;52.624;-1.688;2023-01-19T10:12:56;100126.29;;;-0.24;56.64
70256;BME280;57669;52.624;-1.688;2023-01-19T10:15:20;100128.00;;;-0.17;57.13
70256;BME280;57669;52.624;-1.688;2023-01-19T10:17:47;100123.84;;;0.59;56.07
70256;BME280;57669;52.624;-1.688;2023-01-19T10:22:31;100125.58;;;0.55;55.33
70256;BME280;57669;52.624;-1.688;2023-01-19T10:24:57;100128.35;;;0.78;55.62
70256;BME280;57669;52.624;-1.688;2023-01-19T10:27:23;100134.08;;;0.11;56.49
70256;BME280;57669;52.624;-1.688;2023-01-19T10:29:46;100135.10;;;0.15;55.64
70256;BME280;57669;52.624;-1.688;2023-01-19T10:32:13;100137.93;;;0.35;56.48
70256;BME280;57669;52.624;-1.688;2023-01-19T10:34:37;100145.48;;;-0.18;56.89
70256;BME280;57669;52.624;-1.688;2023-01-19T10:37:04;100153.19;;;-0.24;56.81
70256;BME280;57669;52.624;-1.688;2023-01-19T10:39:28;100154.84;;;0.05;57.03
70256;BME280;57669;52.624;-1.688;2023-01-19T10:41:56;100158.37;;;-0.14;56.41
70256;BME280;57669;52.624;-1.688;2023-01-19T10:44:23;100152.09;;;0.03;56.30
70256;BME280;57669;52.624;-1.688;2023-01-19T10:46:46;100156.11;;;0.06;56.46
70256;BME280;57669;52.624;-1.688;2023-01-19T10:51:44;100162.99;;;1.50;54.26
70256;BME280;57669;52.624;-1.688;2023-01-19T10:54:02;100164.11;;;1.69;52.89
70256;BME280;57669;52.624;-1.688;2023-01-19T10:56:30;100170.96;;;2.10;52.78
70256;BME280;57669;52.624;-1.688;2023-01-19T10:58:51;100169.46;;;2.50;51.34
70256;BME280;57669;52.624;-1.688;2023-01-19T11:01:21;100172.47;;;2.65;50.83
70256;BME280;57669;52.624;-1.688;2023-01-19T11:03:43;100167.97;;;1.76;52.77
70256;BME280;57669;52.624;-1.688;2023-01-19T11:08:33;100165.07;;;1.45;54.05
70256;BME280;57669;52.624;-1.688;2023-01-19T11:11:01;100160.54;;;1.05;55.60
70256;BME280;57669;52.624;-1.688;2023-01-19T11:13:24;100164.69;;;-0.08;58.32
70256;BME280;57669;52.624;-1.688;2023-01-19T11:15:53;100156.14;;;0.99;57.24
70256;BME280;57669;52.624;-1.688;2023-01-19T11:18:24;100152.95;;;0.36;58.41
70256;BME280;57669;52.624;-1.688;2023-01-19T11:20:47;100147.39;;;0.63;58.11
70256;BME280;57669;52.624;-1.688;2023-01-19T11:23:15;100150.84;;;0.30;57.93
70256;BME280;57669;52.624;-1.688;2023-01-19T11:25:32;100157.35;;;0.14;60.04
70256;BME280;57669;52.624;-1.688;2023-01-19T11:27:56;100149.08;;;0.52;57.79
70256;BME280;57669;52.624;-1.688;2023-01-19T11:30:24;100153.34;;;1.49;56.03
70256;BME280;57669;52.624;-1.688;2023-01-19T11:32:47;100153.84;;;1.60;55.15
70256;BME280;57669;52.624;-1.688;2023-01-19T11:37:37;100159.41;;;0.39;58.29
70256;BME280;57669;52.624;-1.688;2023-01-19T11:40:05;100152.62;;;0.98;57.75
70256;BME280;57669;52.624;-1.688;2023-01-19T11:42:31;100154.17;;;1.33;56.80
70256;BME280;57669;52.624;-1.688;2023-01-19T11:44:58;100152.30;;;1.11;57.15
70256;BME280;57669;52.624;-1.688;2023-01-19T11:47:24;100154.56;;;1.47;56.17
70256;BME280;57669;52.624;-1.688;2023-01-19T11:49:48;100164.24;;;0.18;59.12
70256;BME280;57669;52.624;-1.688;2023-01-19T11:52:15;100157.71;;;1.04;57.67
70256;BME280;57669;52.624;-1.688;2023-01-19T11:54:36;100157.18;;;1.01;58.14
70256;BME280;57669;52.624;-1.688;2023-01-19T11:56:59;100154.23;;;1.68;56.99
70256;BME280;57669;52.624;-1.688;2023-01-19T11:59:24;100153.98;;;0.84;58.56
70256;BME280;57669;52.624;-1.688;2023-01-19T12:01:51;100147.35;;;1.05;57.60
70256;BME280;57669;52.624;-1.688;2023-01-19T12:04:18;100145.57;;;0.90;58.12
70256;BME280;57669;52.624;-1.688;2023-01-19T12:06:42;100143.42;;;1.64;56.30
70256;BME280;57669;52.624;-1.688;2023-01-19T12:09:10;100138.24;;;1.87;55.57
70256;BME280;57669;52.624;-1.688;2023-01-19T12:11:31;100149.28;;;2.62;54.18
70256;BME280;57669;52.624;-1.688;2023-01-19T12:13:55;100155.95;;;2.01;54.56
70256;BME280;57669;52.624;-1.688;2023-01-19T12:16:22;100156.86;;;1.89;55.72
70256;BME280;57669;52.624;-1.688;2023-01-19T12:18:49;100153.01;;;2.10;55.36
70256;BME280;57669;52.624;-1.688;2023-01-19T12:21:11;100150.18;;;1.21;56.67
70256;BME280;57669;52.624;-1.688;2023-01-19T12:23:43;100148.41;;;1.08;57.11
70256;BME280;57669;52.624;-1.688;2023-01-19T12:28:29;100136.31;;;0.60;59.81
70256;BME280;57669;52.624;-1.688;2023-01-19T12:30:51;100128.00;;;1.09;57.95
70256;BME280;57669;52.624;-1.688;2023-01-19T12:40:32;100126.88;;;2.52;54.75
70256;BME280;57669;52.624;-1.688;2023-01-19T12:42:59;100133.32;;;2.04;54.77
70256;BME280;57669;52.624;-1.688;2023-01-19T12:45:24;100138.88;;;1.76;55.48
70256;BME280;57669;52.624;-1.688;2023-01-19T12:47:50;100132.33;;;2.56;53.13
70256;BME280;57669;52.624;-1.688;2023-01-19T12:50:16;100128.17;;;2.18;53.80
70256;BME280;57669;52.624;-1.688;2023-01-19T12:52:40;100124.81;;;1.52;54.46
70256;BME280;57669;52.624;-1.688;2023-01-19T12:55:16;100121.97;;;1.62;55.01
70256;BME280;57669;52.624;-1.688;2023-01-19T12:57:32;100122.27;;;2.53;52.77
70256;BME280;57669;52.624;-1.688;2023-01-19T12:59:56;100125.13;;;2.54;52.61
70256;BME280;57669;52.624;-1.688;2023-01-19T13:07:09;100129.07;;;3.02;51.95